Pagina principale
METAR-TAF:

METAR-TAF

Aeroporti :

Aeroporto Internazionale di Baghdad

Baghdad, Iraq

latitudine: 33-15-45N, longitudine: 44-14-04E, altezza: 35 m

Osservazione

Il bollettino è stato emesso 52 minuti fa, alle 02:00 UTC
Vento 2 kt da direzioni variabili
Temperature 16°C
Umidità 45%
Pressione 1013 hPa
Visibilità 10 km o più
nessuna nube inferiore a 1500 m e nessun cumulonembo

METAR: ORBI 250200Z VRB02KT CAVOK 16/04 Q1013

Ora: 05:52 (02:52 UTC)

Previsione

Il bollettino è stato emesso 4 ore e 52 minuti fa, alle 22:00 UTC
Previsione valida dal 25 alle 00 UTC al 25 alle 24 UTC
Vento 4 kt da ovest
Visibilità: 8000 m

TAF: ORBI 242200Z 2500/2524 27004KT 8000 NSC

Osservazioni e previsioni meteorologiche di più di 4000 aeroporti (messaggi METAR e TAF).

Le stazioni disponibili sono rappresentate dai dischi gialli e rossi sulla carta.

Puntare il mouse per vedere il nome della stazione.

Clicca sopra per visualizzare le osservazioni e previsioni meteorologiche.

Per cambiare la mappa : fare clic sui pulsanti verdi con una croce nera per ingrandire, il pulsante verde con un trattino per diminuire, o sulla freccia verde per le mappe adiacenti.


METAR-TAF: